sensor_id;sensor_type;location;lat;lon;timestamp;pressure;altitude;pressure_sealevel;temperature;humidity
56600;BME280;51832;48.152;11.530;2023-07-28T00:02:08;94917.75;;;21.36;71.05
56600;BME280;51832;48.152;11.530;2023-07-28T00:07:08;94914.41;;;21.31;71.28
56600;BME280;51832;48.152;11.530;2023-07-28T00:12:09;94920.16;;;21.24;71.71
56600;BME280;51832;48.152;11.530;2023-07-28T00:17:09;94921.53;;;21.21;72.03
56600;BME280;51832;48.152;11.530;2023-07-28T00:22:09;94907.19;;;21.17;72.35
56600;BME280;51832;48.152;11.530;2023-07-28T00:27:10;94903.22;;;21.15;73.01
56600;BME280;51832;48.152;11.530;2023-07-28T00:32:10;94900.06;;;20.99;72.05
56600;BME280;51832;48.152;11.530;2023-07-28T00:37:10;94897.50;;;20.80;73.03
56600;BME280;51832;48.152;11.530;2023-07-28T00:42:11;94900.31;;;20.48;74.66
56600;BME280;51832;48.152;11.530;2023-07-28T00:47:11;94895.16;;;20.38;74.49
56600;BME280;51832;48.152;11.530;2023-07-28T00:52:12;94901.66;;;20.32;75.17
56600;BME280;51832;48.152;11.530;2023-07-28T00:57:12;94900.81;;;20.36;74.61
56600;BME280;51832;48.152;11.530;2023-07-28T01:02:13;94909.88;;;20.35;74.39
56600;BME280;51832;48.152;11.530;2023-07-28T01:07:17;94908.88;;;20.17;75.14
56600;BME280;51832;48.152;11.530;2023-07-28T01:12:18;94914.19;;;20.04;75.07
56600;BME280;51832;48.152;11.530;2023-07-28T01:17:18;94908.16;;;20.12;74.68
56600;BME280;51832;48.152;11.530;2023-07-28T01:27:49;94905.16;;;20.00;74.60
56600;BME280;51832;48.152;11.530;2023-07-28T01:32:51;94908.38;;;19.83;74.99
56600;BME280;51832;48.152;11.530;2023-07-28T01:37:53;94904.44;;;19.80;74.92
56600;BME280;51832;48.152;11.530;2023-07-28T01:42:54;94909.13;;;19.70;75.23
56600;BME280;51832;48.152;11.530;2023-07-28T01:47:54;94902.53;;;19.67;74.85
56600;BME280;51832;48.152;11.530;2023-07-28T01:52:55;94905.47;;;19.47;75.74
56600;BME280;51832;48.152;11.530;2023-07-28T01:57:57;94899.00;;;19.34;76.08
56600;BME280;51832;48.152;11.530;2023-07-28T02:02:58;94901.16;;;19.32;76.12
56600;BME280;51832;48.152;11.530;2023-07-28T02:08:01;94897.41;;;19.33;75.84
56600;BME280;51832;48.152;11.530;2023-07-28T02:13:02;94894.81;;;19.28;75.73
56600;BME280;51832;48.152;11.530;2023-07-28T02:18:02;94896.03;;;19.36;75.48
56600;BME280;51832;48.152;11.530;2023-07-28T02:23:03;94904.56;;;19.38;75.09
56600;BME280;51832;48.152;11.530;2023-07-28T02:28:03;94906.50;;;19.32;74.97
56600;BME280;51832;48.152;11.530;2023-07-28T02:33:03;94908.66;;;19.30;75.33
56600;BME280;51832;48.152;11.530;2023-07-28T02:38:04;94907.28;;;19.14;76.03
56600;BME280;51832;48.152;11.530;2023-07-28T02:43:05;94891.66;;;19.26;76.12
56600;BME280;51832;48.152;11.530;2023-07-28T02:48:05;94897.31;;;19.01;76.56
56600;BME280;51832;48.152;11.530;2023-07-28T02:53:06;94901.00;;;19.05;76.43
56600;BME280;51832;48.152;11.530;2023-07-28T02:58:06;94900.78;;;18.83;77.19
56600;BME280;51832;48.152;11.530;2023-07-28T03:03:08;94896.06;;;18.98;76.90
56600;BME280;51832;48.152;11.530;2023-07-28T03:08:10;94885.66;;;18.97;76.95
56600;BME280;51832;48.152;11.530;2023-07-28T03:13:11;94885.44;;;18.93;77.04
56600;BME280;51832;48.152;11.530;2023-07-28T03:18:11;94898.03;;;18.69;78.36
56600;BME280;51832;48.152;11.530;2023-07-28T03:23:12;94899.16;;;18.63;78.46
56600;BME280;51832;48.152;11.530;2023-07-28T03:28:12;94907.25;;;18.53;79.40
56600;BME280;51832;48.152;11.530;2023-07-28T03:33:12;94899.38;;;18.66;78.39
56600;BME280;51832;48.152;11.530;2023-07-28T03:38:13;94906.75;;;18.74;78.35
56600;BME280;51832;48.152;11.530;2023-07-28T03:43:13;94911.97;;;18.85;77.89
56600;BME280;51832;48.152;11.530;2023-07-28T03:48:14;94903.38;;;18.88;77.98
56600;BME280;51832;48.152;11.530;2023-07-28T03:53:14;94902.75;;;18.96;77.70
56600;BME280;51832;48.152;11.530;2023-07-28T03:58:15;94910.25;;;19.12;77.26
56600;BME280;51832;48.152;11.530;2023-07-28T04:03:15;94915.09;;;19.10;77.38
56600;BME280;51832;48.152;11.530;2023-07-28T04:08:15;94894.22;;;19.31;76.76
56600;BME280;51832;48.152;11.530;2023-07-28T04:13:16;94905.53;;;19.42;76.70
56600;BME280;51832;48.152;11.530;2023-07-28T04:18:16;94903.06;;;19.97;75.29
56600;BME280;51832;48.152;11.530;2023-07-28T04:23:18;94904.81;;;20.06;74.00
56600;BME280;51832;48.152;11.530;2023-07-28T04:28:18;94906.72;;;20.33;72.98
56600;BME280;51832;48.152;11.530;2023-07-28T04:33:19;94915.72;;;20.37;72.39
56600;BME280;51832;48.152;11.530;2023-07-28T04:38:20;94913.44;;;20.31;73.54
56600;BME280;51832;48.152;11.530;2023-07-28T04:43:20;94911.59;;;20.45;74.06
56600;BME280;51832;48.152;11.530;2023-07-28T04:48:21;94911.97;;;20.66;73.38
56600;BME280;51832;48.152;11.530;2023-07-28T04:53:21;94910.72;;;20.63;73.76
56600;BME280;51832;48.152;11.530;2023-07-28T04:58:22;94924.16;;;20.58;74.88
56600;BME280;51832;48.152;11.530;2023-07-28T05:03:22;94932.69;;;20.74;73.40
56600;BME280;51832;48.152;11.530;2023-07-28T05:08:23;94934.94;;;20.80;73.15
56600;BME280;51832;48.152;11.530;2023-07-28T05:13:23;94926.25;;;20.61;74.06
56600;BME280;51832;48.152;11.530;2023-07-28T05:18:23;94933.47;;;20.74;73.37
56600;BME280;51832;48.152;11.530;2023-07-28T05:23:24;94942.97;;;20.80;74.16
56600;BME280;51832;48.152;11.530;2023-07-28T05:28:24;94941.88;;;20.95;73.07
56600;BME280;51832;48.152;11.530;2023-07-28T05:33:25;94934.34;;;20.97;73.97
56600;BME280;51832;48.152;11.530;2023-07-28T05:38:25;94940.63;;;21.42;73.04
56600;BME280;51832;48.152;11.530;2023-07-28T05:43:26;94950.75;;;21.45;74.05
56600;BME280;51832;48.152;11.530;2023-07-28T05:48:27;94959.50;;;21.59;74.18
56600;BME280;51832;48.152;11.530;2023-07-28T05:53:27;94953.63;;;21.35;75.79
56600;BME280;51832;48.152;11.530;2023-07-28T05:58:28;94970.13;;;21.51;76.21
56600;BME280;51832;48.152;11.530;2023-07-28T06:03:28;94989.31;;;21.44;77.07
56600;BME280;51832;48.152;11.530;2023-07-28T06:08:29;94985.72;;;21.49;77.11
56600;BME280;51832;48.152;11.530;2023-07-28T06:13:29;94987.44;;;21.31;77.52
56600;BME280;51832;48.152;11.530;2023-07-28T06:18:30;94997.56;;;21.20;77.70
56600;BME280;51832;48.152;11.530;2023-07-28T06:23:31;94997.03;;;21.05;77.70
56600;BME280;51832;48.152;11.530;2023-07-28T06:28:31;95000.84;;;20.90;77.89
56600;BME280;51832;48.152;11.530;2023-07-28T06:33:32;95002.72;;;21.31;76.78
56600;BME280;51832;48.152;11.530;2023-07-28T06:38:32;95011.28;;;21.55;75.37
56600;BME280;51832;48.152;11.530;2023-07-28T06:43:32;95013.03;;;21.95;73.88
56600;BME280;51832;48.152;11.530;2023-07-28T06:48:33;95019.66;;;22.12;73.49
56600;BME280;51832;48.152;11.530;2023-07-28T06:53:33;95014.78;;;22.14;73.77
56600;BME280;51832;48.152;11.530;2023-07-28T06:58:34;95015.19;;;22.29;72.77
56600;BME280;51832;48.152;11.530;2023-07-28T07:03:35;95021.19;;;22.80;71.27
56600;BME280;51832;48.152;11.530;2023-07-28T07:08:35;95019.50;;;22.61;71.78
56600;BME280;51832;48.152;11.530;2023-07-28T07:13:35;95027.81;;;22.51;72.23
56600;BME280;51832;48.152;11.530;2023-07-28T07:18:36;95007.28;;;22.78;71.00
56600;BME280;51832;48.152;11.530;2023-07-28T07:23:37;95009.78;;;23.14;71.23
56600;BME280;51832;48.152;11.530;2023-07-28T07:28:37;95006.63;;;23.12;71.00
56600;BME280;51832;48.152;11.530;2023-07-28T07:33:38;95014.53;;;23.17;70.30
56600;BME280;51832;48.152;11.530;2023-07-28T07:38:39;95004.13;;;23.24;69.28
56600;BME280;51832;48.152;11.530;2023-07-28T07:43:41;95016.34;;;23.47;66.88
56600;BME280;51832;48.152;11.530;2023-07-28T07:48:42;95021.31;;;23.97;64.24
56600;BME280;51832;48.152;11.530;2023-07-28T07:53:42;95016.09;;;23.83;62.83
56600;BME280;51832;48.152;11.530;2023-07-28T07:58:43;95023.78;;;23.50;63.78
56600;BME280;51832;48.152;11.530;2023-07-28T08:03:43;95020.97;;;23.55;64.09
56600;BME280;51832;48.152;11.530;2023-07-28T08:08:43;95023.28;;;23.39;64.90
56600;BME280;51832;48.152;11.530;2023-07-28T08:13:44;95024.72;;;23.46;65.83
56600;BME280;51832;48.152;11.530;2023-07-28T08:18:45;95028.38;;;23.50;66.11
56600;BME280;51832;48.152;11.530;2023-07-28T08:23:47;95038.22;;;23.63;65.95
56600;BME280;51832;48.152;11.530;2023-07-28T08:28:47;95045.34;;;23.85;65.39
56600;BME280;51832;48.152;11.530;2023-07-28T08:33:47;95042.81;;;24.05;65.75
56600;BME280;51832;48.152;11.530;2023-07-28T08:38:48;95038.41;;;24.27;65.31
56600;BME280;51832;48.152;11.530;2023-07-28T08:43:49;95039.81;;;24.41;65.08
56600;BME280;51832;48.152;11.530;2023-07-28T08:48:51;95031.03;;;24.79;64.52
56600;BME280;51832;48.152;11.530;2023-07-28T08:53:51;95039.31;;;24.48;64.42
56600;BME280;51832;48.152;11.530;2023-07-28T08:58:58;95017.50;;;24.58;63.85
56600;BME280;51832;48.152;11.530;2023-07-28T09:04:00;95041.25;;;24.39;64.66
56600;BME280;51832;48.152;11.530;2023-07-28T09:09:00;95028.91;;;25.02;62.83
56600;BME280;51832;48.152;11.530;2023-07-28T09:14:01;95060.31;;;24.80;62.52
56600;BME280;51832;48.152;11.530;2023-07-28T09:19:06;95053.97;;;24.76;61.56
56600;BME280;51832;48.152;11.530;2023-07-28T09:24:09;95042.50;;;24.16;63.47
56600;BME280;51832;48.152;11.530;2023-07-28T09:29:17;95051.97;;;23.96;64.72
56600;BME280;51832;48.152;11.530;2023-07-28T09:34:25;95042.78;;;24.66;62.44
56600;BME280;51832;48.152;11.530;2023-07-28T09:39:26;95055.34;;;24.44;62.71
56600;BME280;51832;48.152;11.530;2023-07-28T09:44:28;95058.28;;;24.60;62.50
56600;BME280;51832;48.152;11.530;2023-07-28T09:49:35;95058.13;;;24.65;62.45
56600;BME280;51832;48.152;11.530;2023-07-28T09:54:40;95042.03;;;24.57;62.13
56600;BME280;51832;48.152;11.530;2023-07-28T09:59:42;95064.56;;;24.99;61.32
56600;BME280;51832;48.152;11.530;2023-07-28T10:04:42;95032.19;;;25.45;60.71
56600;BME280;51832;48.152;11.530;2023-07-28T10:09:43;95068.38;;;25.36;58.94
56600;BME280;51832;48.152;11.530;2023-07-28T10:14:44;95059.63;;;25.09;59.41
56600;BME280;51832;48.152;11.530;2023-07-28T10:19:46;95057.47;;;24.86;59.84
56600;BME280;51832;48.152;11.530;2023-07-28T10:25:00;95065.03;;;24.92;60.00
56600;BME280;51832;48.152;11.530;2023-07-28T10:30:02;95041.94;;;25.59;58.87
56600;BME280;51832;48.152;11.530;2023-07-28T10:35:09;95038.34;;;25.25;58.49
56600;BME280;51832;48.152;11.530;2023-07-28T10:40:31;95042.53;;;25.05;58.67
56600;BME280;51832;48.152;11.530;2023-07-28T10:45:34;95071.69;;;25.41;58.24
56600;BME280;51832;48.152;11.530;2023-07-28T10:50:34;95079.03;;;25.24;58.34
56600;BME280;51832;48.152;11.530;2023-07-28T10:55:35;95087.00;;;25.11;58.47
56600;BME280;51832;48.152;11.530;2023-07-28T11:00:35;95058.00;;;25.55;57.77
56600;BME280;51832;48.152;11.530;2023-07-28T11:05:36;95075.56;;;25.61;57.94
56600;BME280;51832;48.152;11.530;2023-07-28T11:10:37;95066.47;;;25.95;56.26
56600;BME280;51832;48.152;11.530;2023-07-28T11:15:38;95074.09;;;25.34;56.78
56600;BME280;51832;48.152;11.530;2023-07-28T11:20:38;95069.84;;;25.63;56.92
56600;BME280;51832;48.152;11.530;2023-07-28T11:25:39;95062.84;;;25.32;57.17
56600;BME280;51832;48.152;11.530;2023-07-28T11:30:39;95061.59;;;25.68;56.34
56600;BME280;51832;48.152;11.530;2023-07-28T11:35:44;95077.44;;;25.69;57.31
56600;BME280;51832;48.152;11.530;2023-07-28T11:40:45;95062.34;;;25.39;57.68
56600;BME280;51832;48.152;11.530;2023-07-28T11:45:45;95064.28;;;25.89;57.30
56600;BME280;51832;48.152;11.530;2023-07-28T11:50:46;95085.03;;;25.59;57.58
56600;BME280;51832;48.152;11.530;2023-07-28T11:55:46;95059.06;;;25.63;56.34
56600;BME280;51832;48.152;11.530;2023-07-28T12:00:47;95064.28;;;25.59;55.40
56600;BME280;51832;48.152;11.530;2023-07-28T12:06:04;95065.47;;;26.00;54.78
56600;BME280;51832;48.152;11.530;2023-07-28T12:11:12;95057.84;;;26.02;53.93
56600;BME280;51832;48.152;11.530;2023-07-28T12:16:38;95041.06;;;26.38;53.50
56600;BME280;51832;48.152;11.530;2023-07-28T12:21:39;95047.66;;;26.49;53.85
56600;BME280;51832;48.152;11.530;2023-07-28T12:26:39;95036.53;;;26.96;53.61
56600;BME280;51832;48.152;11.530;2023-07-28T12:31:39;95050.88;;;26.75;53.45
56600;BME280;51832;48.152;11.530;2023-07-28T12:36:40;95047.81;;;26.65;53.52
56600;BME280;51832;48.152;11.530;2023-07-28T12:41:40;95042.31;;;26.73;52.61
56600;BME280;51832;48.152;11.530;2023-07-28T12:46:41;95035.69;;;27.28;51.31
56600;BME280;51832;48.152;11.530;2023-07-28T12:51:41;95049.53;;;27.63;50.11
56600;BME280;51832;48.152;11.530;2023-07-28T12:56:42;95069.75;;;27.08;50.39
56600;BME280;51832;48.152;11.530;2023-07-28T13:01:43;95035.41;;;26.97;50.81
56600;BME280;51832;48.152;11.530;2023-07-28T13:06:43;95040.66;;;26.81;52.49
56600;BME280;51832;48.152;11.530;2023-07-28T13:11:43;95041.16;;;27.07;51.89
56600;BME280;51832;48.152;11.530;2023-07-28T13:16:44;95038.38;;;26.71;52.54
56600;BME280;51832;48.152;11.530;2023-07-28T13:21:44;95046.16;;;27.54;51.00
56600;BME280;51832;48.152;11.530;2023-07-28T13:26:45;95063.59;;;27.44;51.65
56600;BME280;51832;48.152;11.530;2023-07-28T13:31:45;95056.50;;;27.15;52.28
56600;BME280;51832;48.152;11.530;2023-07-28T13:36:45;95077.56;;;26.89;52.93
56600;BME280;51832;48.152;11.530;2023-07-28T13:41:46;95067.97;;;26.79;52.51
56600;BME280;51832;48.152;11.530;2023-07-28T13:46:46;95075.13;;;26.96;52.27
56600;BME280;51832;48.152;11.530;2023-07-28T13:51:47;95060.44;;;27.30;51.48
56600;BME280;51832;48.152;11.530;2023-07-28T13:56:47;95073.16;;;26.84;51.84
56600;BME280;51832;48.152;11.530;2023-07-28T14:01:49;95086.50;;;26.69;51.69
56600;BME280;51832;48.152;11.530;2023-07-28T14:06:50;95096.72;;;26.22;52.94
56600;BME280;51832;48.152;11.530;2023-07-28T14:11:50;95095.91;;;26.30;52.54
56600;BME280;51832;48.152;11.530;2023-07-28T14:16:51;95101.00;;;26.02;53.51
56600;BME280;51832;48.152;11.530;2023-07-28T14:21:51;95112.63;;;25.94;54.19
56600;BME280;51832;48.152;11.530;2023-07-28T14:26:51;95122.81;;;25.12;65.25
56600;BME280;51832;48.152;11.530;2023-07-28T14:31:52;95099.75;;;24.68;69.46
56600;BME280;51832;48.152;11.530;2023-07-28T14:36:53;95103.34;;;24.89;69.00
56600;BME280;51832;48.152;11.530;2023-07-28T14:41:54;95092.50;;;25.24;68.62
56600;BME280;51832;48.152;11.530;2023-07-28T14:46:54;95097.25;;;25.56;67.82
56600;BME280;51832;48.152;11.530;2023-07-28T14:51:55;95087.63;;;25.55;68.29
56600;BME280;51832;48.152;11.530;2023-07-28T14:56:55;95063.53;;;26.30;65.69
56600;BME280;51832;48.152;11.530;2023-07-28T15:01:55;95046.69;;;26.33;63.60
56600;BME280;51832;48.152;11.530;2023-07-28T15:06:56;95048.47;;;26.62;62.87
56600;BME280;51832;48.152;11.530;2023-07-28T15:11:56;95057.13;;;26.67;62.77
56600;BME280;51832;48.152;11.530;2023-07-28T15:16:57;95070.97;;;26.66;62.60
56600;BME280;51832;48.152;11.530;2023-07-28T15:21:57;95071.97;;;26.61;62.95
56600;BME280;51832;48.152;11.530;2023-07-28T15:26:58;95086.78;;;26.88;62.42
56600;BME280;51832;48.152;11.530;2023-07-28T15:31:58;95068.03;;;27.73;61.38
56600;BME280;51832;48.152;11.530;2023-07-28T15:36:59;95066.94;;;28.54;58.43
56600;BME280;51832;48.152;11.530;2023-07-28T15:42:03;95072.56;;;28.77;58.00
56600;BME280;51832;48.152;11.530;2023-07-28T15:47:04;95075.56;;;28.60;56.29
56600;BME280;51832;48.152;11.530;2023-07-28T15:52:05;95069.81;;;28.89;55.45
56600;BME280;51832;48.152;11.530;2023-07-28T15:57:05;95075.22;;;28.34;58.01
56600;BME280;51832;48.152;11.530;2023-07-28T16:02:06;95079.56;;;28.10;58.75
56600;BME280;51832;48.152;11.530;2023-07-28T16:07:06;95072.69;;;28.53;55.85
56600;BME280;51832;48.152;11.530;2023-07-28T16:12:08;95075.63;;;29.04;54.90
56600;BME280;51832;48.152;11.530;2023-07-28T16:17:09;95071.94;;;29.75;52.45
56600;BME280;51832;48.152;11.530;2023-07-28T16:22:09;95071.91;;;30.06;52.48
56600;BME280;51832;48.152;11.530;2023-07-28T16:27:10;95069.16;;;29.40;54.18
56600;BME280;51832;48.152;11.530;2023-07-28T16:32:10;95070.19;;;29.04;54.68
56600;BME280;51832;48.152;11.530;2023-07-28T16:37:11;95075.84;;;28.71;57.21
56600;BME280;51832;48.152;11.530;2023-07-28T16:42:11;95087.63;;;28.35;58.96
56600;BME280;51832;48.152;11.530;2023-07-28T16:47:12;95086.66;;;28.27;59.51
56600;BME280;51832;48.152;11.530;2023-07-28T16:52:13;95090.97;;;27.91;61.08
56600;BME280;51832;48.152;11.530;2023-07-28T16:57:13;95093.13;;;27.62;62.42
56600;BME280;51832;48.152;11.530;2023-07-28T17:02:14;95089.03;;;27.31;64.17
56600;BME280;51832;48.152;11.530;2023-07-28T17:07:14;95085.34;;;26.90;65.83
56600;BME280;51832;48.152;11.530;2023-07-28T17:12:15;95085.94;;;26.42;69.62
56600;BME280;51832;48.152;11.530;2023-07-28T17:17:15;95088.59;;;26.51;69.34
56600;BME280;51832;48.152;11.530;2023-07-28T17:22:15;95087.53;;;26.43;68.90
56600;BME280;51832;48.152;11.530;2023-07-28T17:27:16;95088.50;;;26.18;71.02
56600;BME280;51832;48.152;11.530;2023-07-28T17:32:17;95085.13;;;26.00;70.38
56600;BME280;51832;48.152;11.530;2023-07-28T17:37:17;95090.22;;;26.23;69.96
56600;BME280;51832;48.152;11.530;2023-07-28T17:42:18;95094.63;;;26.06;70.22
56600;BME280;51832;48.152;11.530;2023-07-28T17:47:19;95084.09;;;26.13;68.15
56600;BME280;51832;48.152;11.530;2023-07-28T17:52:20;95102.09;;;26.30;67.49
56600;BME280;51832;48.152;11.530;2023-07-28T17:57:20;95088.19;;;26.40;67.30
56600;BME280;51832;48.152;11.530;2023-07-28T18:02:21;95098.19;;;26.40;67.55
56600;BME280;51832;48.152;11.530;2023-07-28T18:07:21;95097.31;;;26.27;69.14
56600;BME280;51832;48.152;11.530;2023-07-28T18:12:21;95129.75;;;26.18;69.87
56600;BME280;51832;48.152;11.530;2023-07-28T18:17:22;95189.03;;;24.96;75.67
56600;BME280;51832;48.152;11.530;2023-07-28T18:22:22;95218.53;;;24.18;85.19
56600;BME280;51832;48.152;11.530;2023-07-28T18:27:23;95207.97;;;24.30;87.30
56600;BME280;51832;48.152;11.530;2023-07-28T18:32:23;95167.03;;;24.42;87.49
56600;BME280;51832;48.152;11.530;2023-07-28T18:37:23;95169.53;;;24.64;87.81
56600;BME280;51832;48.152;11.530;2023-07-28T18:42:24;95149.44;;;24.62;87.61
56600;BME280;51832;48.152;11.530;2023-07-28T18:47:24;95156.56;;;24.49;88.83
56600;BME280;51832;48.152;11.530;2023-07-28T18:52:25;95168.13;;;24.50;87.37
56600;BME280;51832;48.152;11.530;2023-07-28T18:57:25;95191.69;;;24.35;89.27
56600;BME280;51832;48.152;11.530;2023-07-28T19:02:26;95200.16;;;24.12;87.99
56600;BME280;51832;48.152;11.530;2023-07-28T19:07:26;95221.19;;;24.09;87.89
56600;BME280;51832;48.152;11.530;2023-07-28T19:12:29;95231.47;;;24.16;88.73
56600;BME280;51832;48.152;11.530;2023-07-28T19:17:29;95229.53;;;24.08;88.19
56600;BME280;51832;48.152;11.530;2023-07-28T19:22:30;95217.09;;;24.21;88.15
56600;BME280;51832;48.152;11.530;2023-07-28T19:27:31;95226.34;;;23.89;89.32
56600;BME280;51832;48.152;11.530;2023-07-28T19:32:31;95218.38;;;23.75;90.56
56600;BME280;51832;48.152;11.530;2023-07-28T19:37:33;95235.56;;;23.65;90.06
56600;BME280;51832;48.152;11.530;2023-07-28T19:42:33;95239.53;;;23.46;92.55
56600;BME280;51832;48.152;11.530;2023-07-28T19:47:34;95246.59;;;23.33;94.89
56600;BME280;51832;48.152;11.530;2023-07-28T19:52:37;95244.50;;;23.30;95.95
56600;BME280;51832;48.152;11.530;2023-07-28T19:57:38;95253.00;;;23.01;97.07
56600;BME280;51832;48.152;11.530;2023-07-28T20:02:39;95240.72;;;22.86;98.50
56600;BME280;51832;48.152;11.530;2023-07-28T20:07:40;95257.25;;;22.66;99.77
56600;BME280;51832;48.152;11.530;2023-07-28T20:12:41;95246.44;;;22.08;100.00
56600;BME280;51832;48.152;11.530;2023-07-28T20:17:41;95230.94;;;22.18;100.00
56600;BME280;51832;48.152;11.530;2023-07-28T20:22:42;95229.91;;;21.73;100.00
56600;BME280;51832;48.152;11.530;2023-07-28T20:27:43;95219.53;;;21.72;100.00
56600;BME280;51832;48.152;11.530;2023-07-28T20:32:45;95219.13;;;21.92;100.00
56600;BME280;51832;48.152;11.530;2023-07-28T20:37:45;95232.00;;;21.90;100.00
56600;BME280;51832;48.152;11.530;2023-07-28T20:42:46;95234.53;;;22.00;98.89
56600;BME280;51832;48.152;11.530;2023-07-28T20:47:46;95236.09;;;22.01;99.01
56600;BME280;51832;48.152;11.530;2023-07-28T20:52:47;95237.97;;;21.87;99.00
56600;BME280;51832;48.152;11.530;2023-07-28T20:57:47;95230.16;;;22.04;98.48
56600;BME280;51832;48.152;11.530;2023-07-28T21:02:49;95226.97;;;22.02;97.87
56600;BME280;51832;48.152;11.530;2023-07-28T21:07:49;95214.97;;;21.86;98.18
56600;BME280;51832;48.152;11.530;2023-07-28T21:12:50;95209.63;;;21.72;99.12
56600;BME280;51832;48.152;11.530;2023-07-28T21:17:51;95207.72;;;21.59;100.00
56600;BME280;51832;48.152;11.530;2023-07-28T21:22:51;95207.09;;;21.62;100.00
56600;BME280;51832;48.152;11.530;2023-07-28T21:27:52;95218.22;;;21.42;100.00
56600;BME280;51832;48.152;11.530;2023-07-28T21:33:03;95219.91;;;21.51;99.56
56600;BME280;51832;48.152;11.530;2023-07-28T21:38:04;95225.94;;;21.43;100.00
56600;BME280;51832;48.152;11.530;2023-07-28T21:43:06;95230.69;;;21.46;99.26
56600;BME280;51832;48.152;11.530;2023-07-28T21:48:06;95238.38;;;21.20;100.00
56600;BME280;51832;48.152;11.530;2023-07-28T21:53:07;95239.31;;;21.11;100.00
56600;BME280;51832;48.152;11.530;2023-07-28T21:58:07;95241.34;;;21.19;100.00
56600;BME280;51832;48.152;11.530;2023-07-28T22:03:08;95238.47;;;20.97;100.00
56600;BME280;51832;48.152;11.530;2023-07-28T22:08:10;95258.28;;;20.96;100.00
56600;BME280;51832;48.152;11.530;2023-07-28T22:13:11;95246.88;;;20.90;99.86
56600;BME280;51832;48.152;11.530;2023-07-28T22:18:11;95258.31;;;21.09;99.31
56600;BME280;51832;48.152;11.530;2023-07-28T22:23:12;95265.22;;;20.97;100.00
56600;BME280;51832;48.152;11.530;2023-07-28T22:28:13;95270.22;;;20.84;100.00
56600;BME280;51832;48.152;11.530;2023-07-28T22:33:14;95262.63;;;20.73;100.00
56600;BME280;51832;48.152;11.530;2023-07-28T22:38:14;95260.59;;;20.83;100.00
56600;BME280;51832;48.152;11.530;2023-07-28T22:43:16;95271.06;;;20.80;100.00
56600;BME280;51832;48.152;11.530;2023-07-28T22:48:17;95260.09;;;20.81;100.00
56600;BME280;51832;48.152;11.530;2023-07-28T22:53:19;95269.19;;;20.80;100.00
56600;BME280;51832;48.152;11.530;2023-07-28T22:58:19;95256.56;;;20.67;100.00
56600;BME280;51832;48.152;11.530;2023-07-28T23:03:20;95254.47;;;20.64;100.00
56600;BME280;51832;48.152;11.530;2023-07-28T23:08:20;95254.09;;;20.71;100.00
56600;BME280;51832;48.152;11.530;2023-07-28T23:13:21;95249.28;;;20.73;100.00
56600;BME280;51832;48.152;11.530;2023-07-28T23:18:21;95257.13;;;20.64;100.00
56600;BME280;51832;48.152;11.530;2023-07-28T23:23:22;95253.44;;;20.79;100.00
56600;BME280;51832;48.152;11.530;2023-07-28T23:28:22;95251.28;;;20.81;100.00
56600;BME280;51832;48.152;11.530;2023-07-28T23:33:22;95242.56;;;20.56;100.00
56600;BME280;51832;48.152;11.530;2023-07-28T23:38:23;95243.84;;;20.59;100.00
56600;BME280;51832;48.152;11.530;2023-07-28T23:43:23;95235.38;;;20.52;100.00
56600;BME280;51832;48.152;11.530;2023-07-28T23:48:27;95246.44;;;20.45;100.00
56600;BME280;51832;48.152;11.530;2023-07-28T23:53:28;95235.47;;;20.47;100.00
56600;BME280;51832;48.152;11.530;2023-07-28T23:58:29;95231.13;;;20.51;99.97
